sensor_id;sensor_type;location;lat;lon;timestamp;temperature;humidity
47813;DHT22;34221;45.296;9.516;2022-12-18T00:00:01;5.70;99.90
47813;DHT22;34221;45.296;9.516;2022-12-18T00:00:16;5.80;99.90
47813;DHT22;34221;45.296;9.516;2022-12-18T00:00:33;5.80;99.90
47813;DHT22;34221;45.296;9.516;2022-12-18T00:00:48;5.80;99.90
47813;DHT22;34221;45.296;9.516;2022-12-18T00:01:04;5.80;99.90
47813;DHT22;34221;45.296;9.516;2022-12-18T00:01:43;5.80;99.90
47813;DHT22;34221;45.296;9.516;2022-12-18T00:01:58;5.80;99.90
47813;DHT22;34221;45.296;9.516;2022-12-18T00:02:16;5.80;99.90
47813;DHT22;34221;45.296;9.516;2022-12-18T00:02:31;5.70;99.90
47813;DHT22;34221;45.296;9.516;2022-12-18T00:02:46;5.70;99.90
47813;DHT22;34221;45.296;9.516;2022-12-18T00:03:01;5.70;99.90
47813;DHT22;34221;45.296;9.516;2022-12-18T00:03:16;5.70;99.90
47813;DHT22;34221;45.296;9.516;2022-12-18T00:03:34;5.60;99.90
47813;DHT22;34221;45.296;9.516;2022-12-18T00:03:51;5.60;99.90
47813;DHT22;34221;45.296;9.516;2022-12-18T00:04:10;5.60;99.90
47813;DHT22;34221;45.296;9.516;2022-12-18T00:04:30;5.60;99.90
47813;DHT22;34221;45.296;9.516;2022-12-18T00:04:45;5.60;99.90
47813;DHT22;34221;45.296;9.516;2022-12-18T00:05:00;5.60;99.90
47813;DHT22;34221;45.296;9.516;2022-12-18T00:05:15;5.60;99.90
47813;DHT22;34221;45.296;9.516;2022-12-18T00:05:30;5.60;99.90
47813;DHT22;34221;45.296;9.516;2022-12-18T00:05:49;5.60;99.90
47813;DHT22;34221;45.296;9.516;2022-12-18T00:06:05;5.60;99.90
47813;DHT22;34221;45.296;9.516;2022-12-18T00:06:21;5.60;99.90
47813;DHT22;34221;45.296;9.516;2022-12-18T00:06:37;5.60;99.90
47813;DHT22;34221;45.296;9.516;2022-12-18T00:06:53;5.60;99.90
47813;DHT22;34221;45.296;9.516;2022-12-18T00:07:08;5.50;99.90
47813;DHT22;34221;45.296;9.516;2022-12-18T00:07:23;5.50;99.90
47813;DHT22;34221;45.296;9.516;2022-12-18T00:07:38;5.50;99.90
47813;DHT22;34221;45.296;9.516;2022-12-18T00:07:53;5.50;99.90
47813;DHT22;34221;45.296;9.516;2022-12-18T00:08:08;5.50;99.90
47813;DHT22;34221;45.296;9.516;2022-12-18T00:08:23;5.50;99.90
47813;DHT22;34221;45.296;9.516;2022-12-18T00:08:38;5.50;99.90
47813;DHT22;34221;45.296;9.516;2022-12-18T00:08:55;5.50;99.90
47813;DHT22;34221;45.296;9.516;2022-12-18T00:09:11;5.50;99.90
47813;DHT22;34221;45.296;9.516;2022-12-18T00:09:26;5.50;99.90
47813;DHT22;34221;45.296;9.516;2022-12-18T00:09:41;5.50;99.90
47813;DHT22;34221;45.296;9.516;2022-12-18T00:09:55;5.50;99.90
47813;DHT22;34221;45.296;9.516;2022-12-18T00:10:10;5.50;99.90
47813;DHT22;34221;45.296;9.516;2022-12-18T00:10:27;5.50;99.90
47813;DHT22;34221;45.296;9.516;2022-12-18T00:10:43;5.50;99.90
47813;DHT22;34221;45.296;9.516;2022-12-18T00:11:06;5.50;99.90
47813;DHT22;34221;45.296;9.516;2022-12-18T00:11:26;5.60;99.90
47813;DHT22;34221;45.296;9.516;2022-12-18T00:11:43;5.60;99.90
47813;DHT22;34221;45.296;9.516;2022-12-18T00:11:58;5.60;99.90
47813;DHT22;34221;45.296;9.516;2022-12-18T00:12:13;5.60;99.90
47813;DHT22;34221;45.296;9.516;2022-12-18T00:12:28;5.60;99.90
47813;DHT22;34221;45.296;9.516;2022-12-18T00:12:43;5.50;99.90
47813;DHT22;34221;45.296;9.516;2022-12-18T00:12:58;5.60;99.90
47813;DHT22;34221;45.296;9.516;2022-12-18T00:13:13;5.60;99.90
47813;DHT22;34221;45.296;9.516;2022-12-18T00:13:28;5.60;99.90
47813;DHT22;34221;45.296;9.516;2022-12-18T00:13:43;5.60;99.90
47813;DHT22;34221;45.296;9.516;2022-12-18T00:14:00;5.60;99.90
47813;DHT22;34221;45.296;9.516;2022-12-18T00:14:15;5.60;99.90
47813;DHT22;34221;45.296;9.516;2022-12-18T00:14:30;5.60;99.90
47813;DHT22;34221;45.296;9.516;2022-12-18T00:14:45;5.60;99.90
47813;DHT22;34221;45.296;9.516;2022-12-18T00:15:00;5.60;99.90
47813;DHT22;34221;45.296;9.516;2022-12-18T00:15:15;5.60;99.90
47813;DHT22;34221;45.296;9.516;2022-12-18T00:15:30;5.50;99.90
47813;DHT22;34221;45.296;9.516;2022-12-18T00:15:48;5.60;99.90
47813;DHT22;34221;45.296;9.516;2022-12-18T00:16:05;5.60;99.90
47813;DHT22;34221;45.296;9.516;2022-12-18T00:16:28;5.60;99.90
47813;DHT22;34221;45.296;9.516;2022-12-18T00:16:46;5.60;99.90
47813;DHT22;34221;45.296;9.516;2022-12-18T00:17:01;5.70;99.90
47813;DHT22;34221;45.296;9.516;2022-12-18T00:17:17;5.70;99.90
47813;DHT22;34221;45.296;9.516;2022-12-18T00:17:32;5.70;99.90
47813;DHT22;34221;45.296;9.516;2022-12-18T00:17:47;5.70;99.90
47813;DHT22;34221;45.296;9.516;2022-12-18T00:18:02;5.70;99.90
47813;DHT22;34221;45.296;9.516;2022-12-18T00:18:17;5.70;99.90
47813;DHT22;34221;45.296;9.516;2022-12-18T00:18:32;5.70;99.90
47813;DHT22;34221;45.296;9.516;2022-12-18T00:18:49;5.70;99.90
47813;DHT22;34221;45.296;9.516;2022-12-18T00:19:06;5.70;99.90
47813;DHT22;34221;45.296;9.516;2022-12-18T00:19:22;5.70;99.90
47813;DHT22;34221;45.296;9.516;2022-12-18T00:19:37;5.70;99.90
47813;DHT22;34221;45.296;9.516;2022-12-18T00:19:52;5.70;99.90
47813;DHT22;34221;45.296;9.516;2022-12-18T00:20:07;5.70;99.90
47813;DHT22;34221;45.296;9.516;2022-12-18T00:20:23;5.70;99.90
47813;DHT22;34221;45.296;9.516;2022-12-18T00:20:40;5.70;99.90
47813;DHT22;34221;45.296;9.516;2022-12-18T00:20:59;5.70;99.90
47813;DHT22;34221;45.296;9.516;2022-12-18T00:21:15;5.70;99.90
47813;DHT22;34221;45.296;9.516;2022-12-18T00:21:31;5.70;99.90
47813;DHT22;34221;45.296;9.516;2022-12-18T00:21:47;5.70;99.90
47813;DHT22;34221;45.296;9.516;2022-12-18T00:22:02;5.80;99.90
47813;DHT22;34221;45.296;9.516;2022-12-18T00:22:18;5.80;99.90
47813;DHT22;34221;45.296;9.516;2022-12-18T00:22:33;5.70;99.90
47813;DHT22;34221;45.296;9.516;2022-12-18T00:22:48;5.70;99.90
47813;DHT22;34221;45.296;9.516;2022-12-18T00:23:03;5.70;99.90
47813;DHT22;34221;45.296;9.516;2022-12-18T00:23:18;5.70;99.90
47813;DHT22;34221;45.296;9.516;2022-12-18T00:23:34;5.70;99.90
47813;DHT22;34221;45.296;9.516;2022-12-18T00:23:50;5.70;99.90
47813;DHT22;34221;45.296;9.516;2022-12-18T00:24:06;5.70;99.90
47813;DHT22;34221;45.296;9.516;2022-12-18T00:24:22;5.70;99.90
47813;DHT22;34221;45.296;9.516;2022-12-18T00:24:37;5.70;99.90
47813;DHT22;34221;45.296;9.516;2022-12-18T00:24:52;5.70;99.90
47813;DHT22;34221;45.296;9.516;2022-12-18T00:25:07;5.70;99.90
47813;DHT22;34221;45.296;9.516;2022-12-18T00:25:22;5.70;99.90
47813;DHT22;34221;45.296;9.516;2022-12-18T00:25:37;5.70;99.90
47813;DHT22;34221;45.296;9.516;2022-12-18T00:25:53;5.60;99.90
47813;DHT22;34221;45.296;9.516;2022-12-18T00:26:11;5.60;99.90
47813;DHT22;34221;45.296;9.516;2022-12-18T00:26:32;5.70;99.90
47813;DHT22;34221;45.296;9.516;2022-12-18T00:26:49;5.70;99.90
47813;DHT22;34221;45.296;9.516;2022-12-18T00:27:04;5.70;99.90
47813;DHT22;34221;45.296;9.516;2022-12-18T00:27:19;5.70;99.90
47813;DHT22;34221;45.296;9.516;2022-12-18T00:27:34;5.70;99.90
47813;DHT22;34221;45.296;9.516;2022-12-18T00:27:49;5.70;99.90
47813;DHT22;34221;45.296;9.516;2022-12-18T00:28:04;5.70;99.90
47813;DHT22;34221;45.296;9.516;2022-12-18T00:28:19;5.70;99.90
47813;DHT22;34221;45.296;9.516;2022-12-18T00:28:35;5.80;99.90
47813;DHT22;34221;45.296;9.516;2022-12-18T00:28:51;5.70;99.90
47813;DHT22;34221;45.296;9.516;2022-12-18T00:29:10;5.70;99.90
47813;DHT22;34221;45.296;9.516;2022-12-18T00:29:28;5.80;99.90
47813;DHT22;34221;45.296;9.516;2022-12-18T00:29:44;5.80;99.90
47813;DHT22;34221;45.296;9.516;2022-12-18T00:29:59;5.80;99.90
47813;DHT22;34221;45.296;9.516;2022-12-18T00:30:14;5.80;99.90
47813;DHT22;34221;45.296;9.516;2022-12-18T00:30:30;5.80;99.90
47813;DHT22;34221;45.296;9.516;2022-12-18T00:30:45;5.80;99.90
47813;DHT22;34221;45.296;9.516;2022-12-18T00:31:07;5.70;99.90
47813;DHT22;34221;45.296;9.516;2022-12-18T00:31:24;5.80;99.90
47813;DHT22;34221;45.296;9.516;2022-12-18T00:31:42;5.80;99.90
47813;DHT22;34221;45.296;9.516;2022-12-18T00:31:57;5.80;99.90
47813;DHT22;34221;45.296;9.516;2022-12-18T00:32:12;5.80;99.90
47813;DHT22;34221;45.296;9.516;2022-12-18T00:32:27;5.80;99.90
47813;DHT22;34221;45.296;9.516;2022-12-18T00:32:42;5.80;99.90
47813;DHT22;34221;45.296;9.516;2022-12-18T00:32:57;5.80;99.90
47813;DHT22;34221;45.296;9.516;2022-12-18T00:33:14;5.80;99.90
47813;DHT22;34221;45.296;9.516;2022-12-18T00:33:29;5.90;99.90
47813;DHT22;34221;45.296;9.516;2022-12-18T00:33:44;5.80;99.90
47813;DHT22;34221;45.296;9.516;2022-12-18T00:33:59;5.80;99.90
47813;DHT22;34221;45.296;9.516;2022-12-18T00:34:14;5.90;99.90
47813;DHT22;34221;45.296;9.516;2022-12-18T00:34:29;5.90;99.90
47813;DHT22;34221;45.296;9.516;2022-12-18T00:34:44;5.90;99.90
47813;DHT22;34221;45.296;9.516;2022-12-18T00:34:59;5.90;99.90
47813;DHT22;34221;45.296;9.516;2022-12-18T00:35:14;5.90;99.90
47813;DHT22;34221;45.296;9.516;2022-12-18T00:35:29;5.90;99.90
47813;DHT22;34221;45.296;9.516;2022-12-18T00:35:46;5.90;99.90
47813;DHT22;34221;45.296;9.516;2022-12-18T00:36:05;5.90;99.90
47813;DHT22;34221;45.296;9.516;2022-12-18T00:36:33;5.80;99.90
47813;DHT22;34221;45.296;9.516;2022-12-18T00:36:48;5.80;99.90
47813;DHT22;34221;45.296;9.516;2022-12-18T00:37:03;5.90;99.90
47813;DHT22;34221;45.296;9.516;2022-12-18T00:37:18;5.90;99.90
47813;DHT22;34221;45.296;9.516;2022-12-18T00:37:34;5.90;99.90
47813;DHT22;34221;45.296;9.516;2022-12-18T00:37:49;5.90;99.90
47813;DHT22;34221;45.296;9.516;2022-12-18T00:38:04;5.80;99.90
47813;DHT22;34221;45.296;9.516;2022-12-18T00:38:20;5.90;99.90
47813;DHT22;34221;45.296;9.516;2022-12-18T00:38:36;5.90;99.90
47813;DHT22;34221;45.296;9.516;2022-12-18T00:38:52;5.90;99.90
47813;DHT22;34221;45.296;9.516;2022-12-18T00:39:10;5.90;99.90
47813;DHT22;34221;45.296;9.516;2022-12-18T00:39:25;5.90;99.90
47813;DHT22;34221;45.296;9.516;2022-12-18T00:39:40;5.90;99.90
47813;DHT22;34221;45.296;9.516;2022-12-18T00:39:55;5.90;99.90
47813;DHT22;34221;45.296;9.516;2022-12-18T00:40:10;5.90;99.90
47813;DHT22;34221;45.296;9.516;2022-12-18T00:40:26;5.90;99.90
47813;DHT22;34221;45.296;9.516;2022-12-18T00:40:42;6.00;99.90
47813;DHT22;34221;45.296;9.516;2022-12-18T00:40:57;6.00;99.90
47813;DHT22;34221;45.296;9.516;2022-12-18T00:41:13;5.90;99.90
47813;DHT22;34221;45.296;9.516;2022-12-18T00:41:49;6.00;99.90
47813;DHT22;34221;45.296;9.516;2022-12-18T00:42:22;6.00;99.90
47813;DHT22;34221;45.296;9.516;2022-12-18T00:42:56;6.00;99.90
47813;DHT22;34221;45.296;9.516;2022-12-18T00:43:11;5.90;99.90
47813;DHT22;34221;45.296;9.516;2022-12-18T00:43:26;6.00;99.90
47813;DHT22;34221;45.296;9.516;2022-12-18T00:43:41;5.90;99.90
47813;DHT22;34221;45.296;9.516;2022-12-18T00:43:56;6.00;99.90
47813;DHT22;34221;45.296;9.516;2022-12-18T00:44:13;6.00;99.90
47813;DHT22;34221;45.296;9.516;2022-12-18T00:44:30;6.00;99.90
47813;DHT22;34221;45.296;9.516;2022-12-18T00:44:45;6.00;99.90
47813;DHT22;34221;45.296;9.516;2022-12-18T00:45:01;6.00;99.90
47813;DHT22;34221;45.296;9.516;2022-12-18T00:45:16;6.00;99.90
47813;DHT22;34221;45.296;9.516;2022-12-18T00:45:31;6.00;99.90
47813;DHT22;34221;45.296;9.516;2022-12-18T00:45:46;5.90;99.90
47813;DHT22;34221;45.296;9.516;2022-12-18T00:46:02;5.90;99.90
47813;DHT22;34221;45.296;9.516;2022-12-18T00:46:17;5.90;99.90
47813;DHT22;34221;45.296;9.516;2022-12-18T00:46:32;5.90;99.90
47813;DHT22;34221;45.296;9.516;2022-12-18T00:46:47;5.90;99.90
47813;DHT22;34221;45.296;9.516;2022-12-18T00:47:03;5.90;99.90
47813;DHT22;34221;45.296;9.516;2022-12-18T00:47:18;5.90;99.90
47813;DHT22;34221;45.296;9.516;2022-12-18T00:47:33;5.90;99.90
47813;DHT22;34221;45.296;9.516;2022-12-18T00:47:48;5.90;99.90
47813;DHT22;34221;45.296;9.516;2022-12-18T00:48:03;5.90;99.90
47813;DHT22;34221;45.296;9.516;2022-12-18T00:48:19;5.90;99.90
47813;DHT22;34221;45.296;9.516;2022-12-18T00:48:34;5.90;99.90
47813;DHT22;34221;45.296;9.516;2022-12-18T00:48:49;5.90;99.90
47813;DHT22;34221;45.296;9.516;2022-12-18T00:49:04;5.90;99.90
47813;DHT22;34221;45.296;9.516;2022-12-18T00:49:19;5.90;99.90
47813;DHT22;34221;45.296;9.516;2022-12-18T00:49:34;5.90;99.90
47813;DHT22;34221;45.296;9.516;2022-12-18T00:49:49;5.90;99.90
47813;DHT22;34221;45.296;9.516;2022-12-18T00:50:05;5.90;99.90
47813;DHT22;34221;45.296;9.516;2022-12-18T00:50:21;5.90;99.90
47813;DHT22;34221;45.296;9.516;2022-12-18T00:50:37;5.90;99.90
47813;DHT22;34221;45.296;9.516;2022-12-18T00:50:52;6.00;99.90
47813;DHT22;34221;45.296;9.516;2022-12-18T00:51:08;5.90;99.90
47813;DHT22;34221;45.296;9.516;2022-12-18T00:51:24;5.90;99.90
47813;DHT22;34221;45.296;9.516;2022-12-18T00:51:39;5.90;99.90
47813;DHT22;34221;45.296;9.516;2022-12-18T00:51:54;5.90;99.90
47813;DHT22;34221;45.296;9.516;2022-12-18T00:52:09;5.80;99.90
47813;DHT22;34221;45.296;9.516;2022-12-18T00:52:24;5.80;99.90
47813;DHT22;34221;45.296;9.516;2022-12-18T00:52:39;5.80;99.90
47813;DHT22;34221;45.296;9.516;2022-12-18T00:52:55;5.80;99.90
47813;DHT22;34221;45.296;9.516;2022-12-18T00:53:10;5.80;99.90
47813;DHT22;34221;45.296;9.516;2022-12-18T00:53:25;5.80;99.90
47813;DHT22;34221;45.296;9.516;2022-12-18T00:54:21;5.80;99.90
47813;DHT22;34221;45.296;9.516;2022-12-18T00:54:36;5.80;99.90
47813;DHT22;34221;45.296;9.516;2022-12-18T00:54:51;5.70;99.90
47813;DHT22;34221;45.296;9.516;2022-12-18T00:55:07;5.80;99.90
47813;DHT22;34221;45.296;9.516;2022-12-18T00:55:22;5.80;99.90
47813;DHT22;34221;45.296;9.516;2022-12-18T00:55:38;5.80;99.90
47813;DHT22;34221;45.296;9.516;2022-12-18T00:55:54;5.70;99.90
47813;DHT22;34221;45.296;9.516;2022-12-18T00:56:09;5.70;99.90
47813;DHT22;34221;45.296;9.516;2022-12-18T00:56:24;5.70;99.90
47813;DHT22;34221;45.296;9.516;2022-12-18T00:56:39;5.70;99.90
47813;DHT22;34221;45.296;9.516;2022-12-18T00:56:54;5.70;99.90
47813;DHT22;34221;45.296;9.516;2022-12-18T00:57:09;5.70;99.90
47813;DHT22;34221;45.296;9.516;2022-12-18T00:57:24;5.80;99.90
47813;DHT22;34221;45.296;9.516;2022-12-18T00:57:39;5.80;99.90
47813;DHT22;34221;45.296;9.516;2022-12-18T00:57:55;5.80;99.90
47813;DHT22;34221;45.296;9.516;2022-12-18T00:58:13;5.80;99.90
47813;DHT22;34221;45.296;9.516;2022-12-18T00:58:29;5.80;99.90
47813;DHT22;34221;45.296;9.516;2022-12-18T00:58:44;5.80;99.90
47813;DHT22;34221;45.296;9.516;2022-12-18T00:58:59;5.80;99.90
47813;DHT22;34221;45.296;9.516;2022-12-18T00:59:15;5.80;99.90
47813;DHT22;34221;45.296;9.516;2022-12-18T00:59:31;5.80;99.90
47813;DHT22;34221;45.296;9.516;2022-12-18T00:59:46;5.80;99.90
47813;DHT22;34221;45.296;9.516;2022-12-18T01:00:01;5.80;99.90
47813;DHT22;34221;45.296;9.516;2022-12-18T01:00:17;5.80;99.90
47813;DHT22;34221;45.296;9.516;2022-12-18T01:00:32;5.80;99.90
47813;DHT22;34221;45.296;9.516;2022-12-18T01:00:47;5.80;99.90
47813;DHT22;34221;45.296;9.516;2022-12-18T01:01:05;5.80;99.90
47813;DHT22;34221;45.296;9.516;2022-12-18T01:01:22;5.80;99.90
47813;DHT22;34221;45.296;9.516;2022-12-18T01:01:38;5.80;99.90
47813;DHT22;34221;45.296;9.516;2022-12-18T01:01:54;5.80;99.90
47813;DHT22;34221;45.296;9.516;2022-12-18T01:02:09;5.80;99.90
47813;DHT22;34221;45.296;9.516;2022-12-18T01:02:27;5.80;99.90
47813;DHT22;34221;45.296;9.516;2022-12-18T01:02:42;5.80;99.90
47813;DHT22;34221;45.296;9.516;2022-12-18T01:02:57;5.80;99.90
47813;DHT22;34221;45.296;9.516;2022-12-18T01:03:14;5.80;99.90
47813;DHT22;34221;45.296;9.516;2022-12-18T01:03:29;5.80;99.90
47813;DHT22;34221;45.296;9.516;2022-12-18T01:03:44;5.80;99.90
47813;DHT22;34221;45.296;9.516;2022-12-18T01:04:02;5.80;99.90
47813;DHT22;34221;45.296;9.516;2022-12-18T01:04:18;5.80;99.90
47813;DHT22;34221;45.296;9.516;2022-12-18T01:04:34;5.80;99.90
47813;DHT22;34221;45.296;9.516;2022-12-18T01:04:49;5.80;99.90
47813;DHT22;34221;45.296;9.516;2022-12-18T01:05:10;5.80;99.90
47813;DHT22;34221;45.296;9.516;2022-12-18T01:05:26;5.80;99.90
47813;DHT22;34221;45.296;9.516;2022-12-18T01:05:42;5.80;99.90
47813;DHT22;34221;45.296;9.516;2022-12-18T01:05:57;5.80;99.90
47813;DHT22;34221;45.296;9.516;2022-12-18T01:06:13;5.80;99.90
47813;DHT22;34221;45.296;9.516;2022-12-18T01:06:29;5.80;99.90
47813;DHT22;34221;45.296;9.516;2022-12-18T01:06:44;5.80;99.90
47813;DHT22;34221;45.296;9.516;2022-12-18T01:06:59;5.90;99.90
47813;DHT22;34221;45.296;9.516;2022-12-18T01:07:15;5.80;99.90
47813;DHT22;34221;45.296;9.516;2022-12-18T01:07:30;5.80;99.90
47813;DHT22;34221;45.296;9.516;2022-12-18T01:07:45;5.90;99.90
47813;DHT22;34221;45.296;9.516;2022-12-18T01:08:00;5.90;99.90
47813;DHT22;34221;45.296;9.516;2022-12-18T01:08:15;5.90;99.90
47813;DHT22;34221;45.296;9.516;2022-12-18T01:08:32;5.80;99.90
47813;DHT22;34221;45.296;9.516;2022-12-18T01:08:47;5.90;99.90
47813;DHT22;34221;45.296;9.516;2022-12-18T01:09:02;5.90;99.90
47813;DHT22;34221;45.296;9.516;2022-12-18T01:09:17;5.90;99.90
47813;DHT22;34221;45.296;9.516;2022-12-18T01:09:32;5.80;99.90
47813;DHT22;34221;45.296;9.516;2022-12-18T01:09:47;5.80;99.90
47813;DHT22;34221;45.296;9.516;2022-12-18T01:10:04;5.80;99.90
47813;DHT22;34221;45.296;9.516;2022-12-18T01:10:20;5.80;99.90
47813;DHT22;34221;45.296;9.516;2022-12-18T01:10:35;5.80;99.90
47813;DHT22;34221;45.296;9.516;2022-12-18T01:10:50;5.80;99.90
47813;DHT22;34221;45.296;9.516;2022-12-18T01:11:19;5.80;99.90
47813;DHT22;34221;45.296;9.516;2022-12-18T01:11:35;5.80;99.90
47813;DHT22;34221;45.296;9.516;2022-12-18T01:11:50;5.80;99.90
47813;DHT22;34221;45.296;9.516;2022-12-18T01:12:05;5.80;99.90
47813;DHT22;34221;45.296;9.516;2022-12-18T01:12:20;5.80;99.90
47813;DHT22;34221;45.296;9.516;2022-12-18T01:12:38;5.80;99.90
47813;DHT22;34221;45.296;9.516;2022-12-18T01:12:54;5.80;99.90
47813;DHT22;34221;45.296;9.516;2022-12-18T01:13:09;5.80;99.90
47813;DHT22;34221;45.296;9.516;2022-12-18T01:13:24;5.80;99.90
47813;DHT22;34221;45.296;9.516;2022-12-18T01:13:39;5.80;99.90
47813;DHT22;34221;45.296;9.516;2022-12-18T01:13:54;5.80;99.90
47813;DHT22;34221;45.296;9.516;2022-12-18T01:14:10;5.80;99.90
47813;DHT22;34221;45.296;9.516;2022-12-18T01:14:26;5.80;99.90
47813;DHT22;34221;45.296;9.516;2022-12-18T01:14:41;5.80;99.90
47813;DHT22;34221;45.296;9.516;2022-12-18T01:14:56;5.70;99.90
47813;DHT22;34221;45.296;9.516;2022-12-18T01:15:12;5.70;99.90
47813;DHT22;34221;45.296;9.516;2022-12-18T01:15:28;5.70;99.90
47813;DHT22;34221;45.296;9.516;2022-12-18T01:15:49;5.70;99.90
47813;DHT22;34221;45.296;9.516;2022-12-18T01:16:05;5.70;99.90
47813;DHT22;34221;45.296;9.516;2022-12-18T01:16:23;5.70;99.90
47813;DHT22;34221;45.296;9.516;2022-12-18T01:16:38;5.60;99.90
47813;DHT22;34221;45.296;9.516;2022-12-18T01:16:53;5.70;99.90
47813;DHT22;34221;45.296;9.516;2022-12-18T01:17:08;5.60;99.90
47813;DHT22;34221;45.296;9.516;2022-12-18T01:17:23;5.60;99.90
47813;DHT22;34221;45.296;9.516;2022-12-18T01:17:38;5.60;99.90
47813;DHT22;34221;45.296;9.516;2022-12-18T01:17:53;5.60;99.90
47813;DHT22;34221;45.296;9.516;2022-12-18T01:18:08;5.60;99.90
47813;DHT22;34221;45.296;9.516;2022-12-18T01:18:23;5.60;99.90
47813;DHT22;34221;45.296;9.516;2022-12-18T01:18:39;5.60;99.90
47813;DHT22;34221;45.296;9.516;2022-12-18T01:18:54;5.60;99.90
47813;DHT22;34221;45.296;9.516;2022-12-18T01:19:09;5.60;99.90
47813;DHT22;34221;45.296;9.516;2022-12-18T01:19:24;5.60;99.90
47813;DHT22;34221;45.296;9.516;2022-12-18T01:19:39;5.50;99.90
47813;DHT22;34221;45.296;9.516;2022-12-18T01:19:56;5.60;99.90
47813;DHT22;34221;45.296;9.516;2022-12-18T01:20:12;5.50;99.90
47813;DHT22;34221;45.296;9.516;2022-12-18T01:20:27;5.50;99.90
47813;DHT22;34221;45.296;9.516;2022-12-18T01:20:42;5.50;99.90
47813;DHT22;34221;45.296;9.516;2022-12-18T01:20:57;5.50;99.90
47813;DHT22;34221;45.296;9.516;2022-12-18T01:21:15;5.60;99.90
47813;DHT22;34221;45.296;9.516;2022-12-18T01:21:30;5.50;99.90
47813;DHT22;34221;45.296;9.516;2022-12-18T01:21:45;5.50;99.90
47813;DHT22;34221;45.296;9.516;2022-12-18T01:22:01;5.50;99.90
47813;DHT22;34221;45.296;9.516;2022-12-18T01:22:16;5.60;99.90
47813;DHT22;34221;45.296;9.516;2022-12-18T01:22:33;5.50;99.90
47813;DHT22;34221;45.296;9.516;2022-12-18T01:22:48;5.50;99.90
47813;DHT22;34221;45.296;9.516;2022-12-18T01:23:03;5.50;99.90
47813;DHT22;34221;45.296;9.516;2022-12-18T01:23:18;5.50;99.90
47813;DHT22;34221;45.296;9.516;2022-12-18T01:23:33;5.50;99.90
47813;DHT22;34221;45.296;9.516;2022-12-18T01:23:53;5.50;99.90
47813;DHT22;34221;45.296;9.516;2022-12-18T01:24:12;5.50;99.90
47813;DHT22;34221;45.296;9.516;2022-12-18T01:24:27;5.60;99.90
47813;DHT22;34221;45.296;9.516;2022-12-18T01:24:42;5.50;99.90
47813;DHT22;34221;45.296;9.516;2022-12-18T01:24:57;5.50;99.90
47813;DHT22;34221;45.296;9.516;2022-12-18T01:25:12;5.50;99.90
47813;DHT22;34221;45.296;9.516;2022-12-18T01:25:27;5.50;99.90
47813;DHT22;34221;45.296;9.516;2022-12-18T01:25:42;5.50;99.90
47813;DHT22;34221;45.296;9.516;2022-12-18T01:25:58;5.50;99.90
47813;DHT22;34221;45.296;9.516;2022-12-18T01:26:24;5.50;99.90
47813;DHT22;34221;45.296;9.516;2022-12-18T01:26:40;5.50;99.90
47813;DHT22;34221;45.296;9.516;2022-12-18T01:26:55;5.50;99.90
47813;DHT22;34221;45.296;9.516;2022-12-18T01:27:11;5.60;99.90
47813;DHT22;34221;45.296;9.516;2022-12-18T01:27:28;5.60;99.90
47813;DHT22;34221;45.296;9.516;2022-12-18T01:27:44;5.60;99.90
47813;DHT22;34221;45.296;9.516;2022-12-18T01:27:59;5.60;99.90
47813;DHT22;34221;45.296;9.516;2022-12-18T01:28:14;5.50;99.90
47813;DHT22;34221;45.296;9.516;2022-12-18T01:28:29;5.50;99.90
47813;DHT22;34221;45.296;9.516;2022-12-18T01:28:44;5.60;99.90
47813;DHT22;34221;45.296;9.516;2022-12-18T01:28:59;5.50;99.90
47813;DHT22;34221;45.296;9.516;2022-12-18T01:29:14;5.50;99.90
47813;DHT22;34221;45.296;9.516;2022-12-18T01:29:29;5.50;99.90
47813;DHT22;34221;45.296;9.516;2022-12-18T01:29:44;5.50;99.90
47813;DHT22;34221;45.296;9.516;2022-12-18T01:29:59;5.50;99.90
47813;DHT22;34221;45.296;9.516;2022-12-18T01:30:14;5.50;99.90
47813;DHT22;34221;45.296;9.516;2022-12-18T01:30:29;5.50;99.90
47813;DHT22;34221;45.296;9.516;2022-12-18T01:30:44;5.50;99.90
47813;DHT22;34221;45.296;9.516;2022-12-18T01:31:28;5.50;99.90
47813;DHT22;34221;45.296;9.516;2022-12-18T01:31:44;5.50;99.90
47813;DHT22;34221;45.296;9.516;2022-12-18T01:31:59;5.50;99.90
47813;DHT22;34221;45.296;9.516;2022-12-18T01:32:14;5.50;99.90
47813;DHT22;34221;45.296;9.516;2022-12-18T01:32:30;5.50;99.90
47813;DHT22;34221;45.296;9.516;2022-12-18T01:32:45;5.50;99.90
47813;DHT22;34221;45.296;9.516;2022-12-18T01:33:00;5.50;99.90
47813;DHT22;34221;45.296;9.516;2022-12-18T01:33:15;5.50;99.90
47813;DHT22;34221;45.296;9.516;2022-12-18T01:33:30;5.50;99.90
47813;DHT22;34221;45.296;9.516;2022-12-18T01:33:49;5.50;99.90
47813;DHT22;34221;45.296;9.516;2022-12-18T01:34:05;5.50;99.90
47813;DHT22;34221;45.296;9.516;2022-12-18T01:34:20;5.50;99.90
47813;DHT22;34221;45.296;9.516;2022-12-18T01:34:36;5.50;99.90
47813;DHT22;34221;45.296;9.516;2022-12-18T01:34:52;5.50;99.90
47813;DHT22;34221;45.296;9.516;2022-12-18T01:35:08;5.50;99.90
47813;DHT22;34221;45.296;9.516;2022-12-18T01:35:23;5.50;99.90
47813;DHT22;34221;45.296;9.516;2022-12-18T01:35:42;5.50;99.90
47813;DHT22;34221;45.296;9.516;2022-12-18T01:35:57;5.50;99.90
47813;DHT22;34221;45.296;9.516;2022-12-18T01:36:17;5.50;99.90
47813;DHT22;34221;45.296;9.516;2022-12-18T01:36:36;5.40;99.90
47813;DHT22;34221;45.296;9.516;2022-12-18T01:36:52;5.40;99.90
47813;DHT22;34221;45.296;9.516;2022-12-18T01:37:07;5.40;99.90
47813;DHT22;34221;45.296;9.516;2022-12-18T01:37:22;5.40;99.90
47813;DHT22;34221;45.296;9.516;2022-12-18T01:37:37;5.40;99.90
47813;DHT22;34221;45.296;9.516;2022-12-18T01:37:55;5.40;99.90
47813;DHT22;34221;45.296;9.516;2022-12-18T01:38:10;5.40;99.90
47813;DHT22;34221;45.296;9.516;2022-12-18T01:38:25;5.40;99.90
47813;DHT22;34221;45.296;9.516;2022-12-18T01:38:41;5.40;99.90
47813;DHT22;34221;45.296;9.516;2022-12-18T01:38:56;5.40;99.90
47813;DHT22;34221;45.296;9.516;2022-12-18T01:39:18;5.40;99.90
47813;DHT22;34221;45.296;9.516;2022-12-18T01:39:33;5.40;99.90
47813;DHT22;34221;45.296;9.516;2022-12-18T01:39:48;5.40;99.90
47813;DHT22;34221;45.296;9.516;2022-12-18T01:40:05;5.40;99.90
47813;DHT22;34221;45.296;9.516;2022-12-18T01:40:20;5.40;99.90
47813;DHT22;34221;45.296;9.516;2022-12-18T01:40:35;5.40;99.90
47813;DHT22;34221;45.296;9.516;2022-12-18T01:40:57;5.40;99.90
47813;DHT22;34221;45.296;9.516;2022-12-18T01:41:15;5.40;99.90
47813;DHT22;34221;45.296;9.516;2022-12-18T01:41:33;5.30;99.90
47813;DHT22;34221;45.296;9.516;2022-12-18T01:42:15;5.30;99.90
47813;DHT22;34221;45.296;9.516;2022-12-18T01:42:30;5.30;99.90
47813;DHT22;34221;45.296;9.516;2022-12-18T01:42:52;5.30;99.90
47813;DHT22;34221;45.296;9.516;2022-12-18T01:43:09;5.30;99.90
47813;DHT22;34221;45.296;9.516;2022-12-18T01:43:44;5.30;99.90
47813;DHT22;34221;45.296;9.516;2022-12-18T01:43:59;5.30;99.90
47813;DHT22;34221;45.296;9.516;2022-12-18T01:45:31;5.20;99.90
47813;DHT22;34221;45.296;9.516;2022-12-18T01:45:46;5.10;99.90
47813;DHT22;34221;45.296;9.516;2022-12-18T01:46:01;5.20;99.90
47813;DHT22;34221;45.296;9.516;2022-12-18T01:46:20;5.20;99.90